TNCC/CUR METAR and TAF weather

Enter ICAO airport designator
Station Type Date Time Source
TNCC METAR 2020/01/26 03:00 UTC NOAA

TNCC 260300Z AUTO 06008KT 9999 FEW017 26/23 Q1014 NOSIG


Station Type Date Time Source
TNCC Decoded METAR 2020/01/26 03:00 UTC NOAA

Hato Airport, Curacao, Netherlands Antilles (TNCC) 12-12N 068-58W 67M
Jan 25, 2020 - 10:00 PM EST / 2020.01.26 0300 UTC
Wind: from the ENE (060 degrees) at 9 MPH (8 KT):0
Visibility: greater than 7 mile(s):0
Sky conditions: mostly clear
Temperature: 78 F (26 C)
Dew Point: 73 F (23 C)
Relative Humidity: 83%
Pressure (altimeter): 29.94 in. Hg (1014 hPa)
ob: TNCC 260300Z AUTO 06008KT 9999 FEW017 26/23 Q1014 NOSIG
cycle: 3

Station Type Date Time Source
TNCC TAF 2020/01/25 18:28 UTC NOAA

TAF TNCC 251715Z 2518/2618 07007KT 9999 SCT022

Example: see airport list